createdAt,value
2022-09-27T00:01:48.059Z,15.17
2022-09-27T00:04:17.321Z,15.19
2022-09-27T00:06:45.189Z,15.15
2022-09-27T00:09:13.147Z,15.23
2022-09-27T00:11:43.144Z,15.17
2022-09-27T00:14:13.749Z,15.15
2022-09-27T00:16:43.375Z,15.13
2022-09-27T00:19:15.379Z,15.03
2022-09-27T00:21:46.152Z,15.08
2022-09-27T00:24:15.251Z,15.04
2022-09-27T00:26:43.482Z,15.12
2022-09-27T00:29:12.348Z,14.99
2022-09-27T00:31:40.804Z,15.00
2022-09-27T00:34:12.524Z,15.01
2022-09-27T00:36:40.417Z,14.85
2022-09-27T00:39:10.762Z,14.88
2022-09-27T00:41:39.779Z,14.84
2022-09-27T00:44:46.204Z,14.76
2022-09-27T00:47:21.357Z,14.69
2022-09-27T00:49:52.936Z,14.63
2022-09-27T00:52:33.328Z,14.53
2022-09-27T00:55:08.428Z,14.69
2022-09-27T00:57:37.216Z,14.70
2022-09-27T01:00:09.689Z,14.59
2022-09-27T01:02:39.413Z,14.65
2022-09-27T01:05:10.181Z,14.71
2022-09-27T01:07:38.614Z,14.76
2022-09-27T01:10:08.954Z,14.66
2022-09-27T01:12:50.830Z,14.69
2022-09-27T01:15:27.149Z,14.55
2022-09-27T01:18:06.757Z,14.60
2022-09-27T01:21:13.213Z,14.67
2022-09-27T01:24:14.066Z,14.60
2022-09-27T01:27:28.759Z,14.36
2022-09-27T01:30:18.197Z,14.44
2022-09-27T01:32:52.410Z,14.25
2022-09-27T01:35:26.938Z,14.06
2022-09-27T01:38:04.715Z,13.97
2022-09-27T01:40:42.875Z,14.05
2022-09-27T01:43:16.590Z,13.90
2022-09-27T01:45:52.392Z,14.02
2022-09-27T01:48:23.878Z,14.15
2022-09-27T01:50:56.482Z,14.22
2022-09-27T01:53:30.179Z,13.99
2022-09-27T01:55:58.967Z,14.20
2022-09-27T01:58:35.118Z,14.25
2022-09-27T02:01:06.759Z,14.23
2022-09-27T02:03:37.387Z,14.31
2022-09-27T02:06:12.997Z,14.23
2022-09-27T02:08:44.764Z,14.22
2022-09-27T02:11:18.636Z,14.19
2022-09-27T02:13:51.503Z,14.25
2022-09-27T02:16:29.894Z,14.13
2022-09-27T02:19:08.922Z,14.25
2022-09-27T02:21:44.027Z,14.20
2022-09-27T02:24:20.578Z,14.31
2022-09-27T02:26:54.653Z,14.27
2022-09-27T02:29:33.370Z,14.34
2022-09-27T02:32:03.085Z,14.26
2022-09-27T02:34:35.752Z,14.31
2022-09-27T02:37:03.673Z,14.28
2022-09-27T02:39:32.266Z,14.32
2022-09-27T02:42:00.260Z,14.14
2022-09-27T02:44:29.950Z,14.22
2022-09-27T02:47:14.434Z,14.28
2022-09-27T02:49:59.072Z,14.19
2022-09-27T02:52:40.224Z,14.27
2022-09-27T02:55:15.923Z,14.20
2022-09-27T02:57:56.005Z,14.23
2022-09-27T03:00:31.677Z,14.29
2022-09-27T03:03:10.877Z,14.31
2022-09-27T03:05:43.064Z,14.18
2022-09-27T03:08:12.497Z,14.38
2022-09-27T03:10:41.235Z,14.42
2022-09-27T03:13:12.995Z,14.26
2022-09-27T03:15:40.896Z,14.45
2022-09-27T03:18:13.212Z,14.43
2022-09-27T03:20:43.651Z,14.35
2022-09-27T03:23:14.562Z,14.36
2022-09-27T03:25:43.005Z,14.41
2022-09-27T03:28:10.851Z,14.33
2022-09-27T03:30:39.584Z,14.25
2022-09-27T03:33:09.229Z,14.23
2022-09-27T03:35:38.729Z,14.45
2022-09-27T03:38:07.406Z,14.48
2022-09-27T03:40:35.417Z,14.56
2022-09-27T03:43:03.664Z,14.50
2022-09-27T03:45:31.587Z,14.57
2022-09-27T03:48:04.461Z,14.52
2022-09-27T03:50:32.359Z,14.48
2022-09-27T03:53:01.746Z,14.40
2022-09-27T03:55:30.092Z,14.38
2022-09-27T03:57:58.388Z,14.27
2022-09-27T04:00:26.349Z,14.25
2022-09-27T04:02:54.291Z,14.25
2022-09-27T04:05:26.687Z,14.27
2022-09-27T04:07:54.989Z,14.35
2022-09-27T04:10:24.515Z,14.34
2022-09-27T04:12:53.056Z,14.42
2022-09-27T04:15:20.981Z,14.43
2022-09-27T04:17:48.888Z,14.54
2022-09-27T04:20:17.164Z,14.55
2022-09-27T04:22:45.795Z,14.50
2022-09-27T04:25:14.155Z,14.53
2022-09-27T04:27:45.896Z,14.45
2022-09-27T04:30:14.832Z,14.39
2022-09-27T04:32:43.172Z,14.34
2022-09-27T04:35:29.059Z,14.43
2022-09-27T04:37:57.241Z,14.39
2022-09-27T04:40:25.550Z,14.35
2022-09-27T04:42:54.849Z,14.39
2022-09-27T04:45:22.804Z,14.45
2022-09-27T04:47:51.569Z,14.42
2022-09-27T04:50:20.373Z,14.32
2022-09-27T04:52:52.726Z,14.22
2022-09-27T04:55:21.549Z,14.27
2022-09-27T04:57:50.205Z,14.41
2022-09-27T05:00:19.808Z,14.42
2022-09-27T05:02:48.724Z,14.42
2022-09-27T05:05:17.296Z,14.48
2022-09-27T05:07:45.189Z,14.51
2022-09-27T05:10:13.098Z,14.40
2022-09-27T05:12:41.588Z,14.46
2022-09-27T05:15:10.774Z,14.43
2022-09-27T05:17:40.022Z,14.42
2022-09-27T05:20:09.876Z,14.47
2022-09-27T05:22:37.969Z,14.58
2022-09-27T05:25:06.777Z,14.59
2022-09-27T05:27:34.743Z,14.57
2022-09-27T05:30:02.674Z,14.66
2022-09-27T05:32:30.975Z,14.68
2022-09-27T05:35:01.500Z,14.82
2022-09-27T05:37:30.062Z,14.86
2022-09-27T05:39:58.064Z,14.87
2022-09-27T05:42:25.965Z,15.00
2022-09-27T05:44:53.814Z,15.06
2022-09-27T05:47:21.762Z,15.07
2022-09-27T05:49:49.690Z,15.04
2022-09-27T05:52:20.270Z,15.16
2022-09-27T05:54:49.473Z,15.16
2022-09-27T05:57:17.384Z,15.07
2022-09-27T05:59:45.444Z,15.06
2022-09-27T06:02:14.900Z,15.09
2022-09-27T06:04:58.717Z,15.03
2022-09-27T06:07:28.990Z,15.12
2022-09-27T06:09:56.883Z,15.19
2022-09-27T06:12:24.870Z,15.08
2022-09-27T06:14:52.754Z,15.11
2022-09-27T06:17:20.912Z,15.13
2022-09-27T06:19:49.473Z,15.23
2022-09-27T06:22:17.392Z,15.25
2022-09-27T06:24:46.704Z,15.23
2022-09-27T06:27:14.568Z,15.25
2022-09-27T06:29:42.437Z,15.23
2022-09-27T06:32:10.835Z,15.40
2022-09-27T06:34:38.716Z,15.43
2022-09-27T06:37:06.786Z,15.50
2022-09-27T06:39:35.108Z,15.39
2022-09-27T06:42:04.939Z,15.29
2022-09-27T06:44:36.090Z,15.41
2022-09-27T06:47:04.122Z,15.42
2022-09-27T06:49:32.120Z,15.48
2022-09-27T06:52:00.099Z,15.44
2022-09-27T06:54:28.024Z,15.36
2022-09-27T06:56:59.025Z,15.32
2022-09-27T06:59:49.048Z,15.35
2022-09-27T07:02:16.982Z,15.35
2022-09-27T07:04:44.945Z,15.33
2022-09-27T07:07:13.908Z,15.43
2022-09-27T07:09:45.039Z,15.51
2022-09-27T07:12:13.454Z,15.45
2022-09-27T07:14:42.719Z,15.42
2022-09-27T07:17:10.589Z,15.50
2022-09-27T07:19:38.527Z,15.51
2022-09-27T07:22:06.408Z,15.47
2022-09-27T07:24:34.718Z,15.41
2022-09-27T07:27:02.708Z,15.48
2022-09-27T07:29:30.661Z,15.55
2022-09-27T07:31:59.983Z,15.51
2022-09-27T07:34:28.145Z,15.43
2022-09-27T07:37:00.575Z,15.31
2022-09-27T07:39:28.734Z,15.25
2022-09-27T07:41:56.779Z,15.31
2022-09-27T07:44:24.777Z,15.35
2022-09-27T07:46:52.847Z,15.39
2022-09-27T07:49:22.160Z,15.40
2022-09-27T07:51:50.203Z,15.44
2022-09-27T07:54:20.019Z,15.36
2022-09-27T07:56:48.037Z,15.55
2022-09-27T07:59:16.036Z,15.60
2022-09-27T08:01:45.814Z,15.68
2022-09-27T08:04:13.697Z,15.61
2022-09-27T08:06:43.274Z,15.56
2022-09-27T08:09:11.561Z,15.35
2022-09-27T08:11:39.759Z,15.42
2022-09-27T08:14:07.775Z,15.43
2022-09-27T08:16:35.745Z,15.42
2022-09-27T08:19:16.572Z,15.42
2022-09-27T08:21:46.137Z,15.29
2022-09-27T08:24:14.030Z,15.45
2022-09-27T08:26:49.640Z,15.48
2022-09-27T08:29:17.590Z,15.77
2022-09-27T08:31:45.557Z,15.87
2022-09-27T08:34:13.617Z,15.97
2022-09-27T08:36:43.920Z,16.21
2022-09-27T08:39:13.706Z,16.32
2022-09-27T08:41:48.775Z,16.41
2022-09-27T08:44:26.505Z,16.42
2022-09-27T08:47:03.668Z,16.50
2022-09-27T08:49:37.863Z,16.63
2022-09-27T08:52:09.363Z,16.57
2022-09-27T08:54:39.522Z,16.57
2022-09-27T08:57:12.915Z,16.34
2022-09-27T08:59:43.197Z,16.66
2022-09-27T09:02:19.044Z,16.81
2022-09-27T09:04:49.397Z,16.95
2022-09-27T09:07:38.979Z,17.11
2022-09-27T09:10:48.700Z,17.26
2022-09-27T09:13:24.394Z,17.25
2022-09-27T09:16:02.030Z,17.30
2022-09-27T09:18:47.996Z,17.54
2022-09-27T09:21:37.006Z,17.65
2022-09-27T09:24:25.751Z,17.78
2022-09-27T09:27:03.480Z,17.74
2022-09-27T09:29:47.217Z,17.86
2022-09-27T09:32:30.631Z,18.12
2022-09-27T09:35:02.783Z,18.30
2022-09-27T09:37:38.886Z,18.50
2022-09-27T09:40:18.120Z,18.47
2022-09-27T09:42:53.941Z,18.25
2022-09-27T09:45:27.650Z,18.13
2022-09-27T09:48:02.110Z,18.04
2022-09-27T09:50:36.710Z,18.18
2022-09-27T09:53:13.219Z,18.37
2022-09-27T09:55:43.408Z,18.35
2022-09-27T09:58:22.794Z,18.53
2022-09-27T10:00:54.893Z,18.64
2022-09-27T10:03:24.501Z,18.63
2022-09-27T10:05:52.496Z,18.73
2022-09-27T10:08:22.666Z,18.63
2022-09-27T10:10:50.683Z,18.49
2022-09-27T10:13:22.498Z,18.33
2022-09-27T10:15:58.310Z,18.32
2022-09-27T10:18:28.404Z,18.46
2022-09-27T10:21:01.054Z,18.57
2022-09-27T10:23:30.103Z,19.00
2022-09-27T10:26:01.266Z,19.37
2022-09-27T10:28:37.519Z,19.42
2022-09-27T10:31:08.212Z,19.50
2022-09-27T10:33:38.607Z,19.59
2022-09-27T10:36:24.554Z,19.46
2022-09-27T10:38:55.395Z,19.34
2022-09-27T10:41:27.767Z,19.36
2022-09-27T10:43:57.036Z,19.42
2022-09-27T10:46:28.866Z,19.46
2022-09-27T10:49:17.637Z,19.91
2022-09-27T10:51:47.634Z,20.35
2022-09-27T10:54:22.059Z,20.82
2022-09-27T10:56:58.076Z,21.52
2022-09-27T10:59:30.730Z,22.29
2022-09-27T11:01:59.868Z,22.72
2022-09-27T11:04:32.138Z,23.33
2022-09-27T11:07:15.375Z,23.49
2022-09-27T11:10:03.047Z,23.16
2022-09-27T11:12:32.125Z,23.31
2022-09-27T11:15:06.137Z,23.02
2022-09-27T11:17:38.997Z,23.32
2022-09-27T11:20:17.740Z,23.12
2022-09-27T11:23:20.765Z,23.76
2022-09-27T11:26:04.828Z,23.72
2022-09-27T11:28:45.606Z,24.15
2022-09-27T11:31:24.996Z,24.27
2022-09-27T11:34:05.967Z,24.46
2022-09-27T11:36:44.803Z,24.53
2022-09-27T11:39:20.897Z,24.90
2022-09-27T11:42:07.835Z,25.34
2022-09-27T11:45:31.867Z,25.75
2022-09-27T11:48:07.211Z,25.95
2022-09-27T11:50:56.853Z,25.70
2022-09-27T11:53:37.073Z,25.86
2022-09-27T11:56:13.537Z,26.35
2022-09-27T11:59:07.746Z,26.77
2022-09-27T12:01:51.016Z,27.12
2022-09-27T12:05:16.747Z,27.48
2022-09-27T12:07:51.455Z,28.20
2022-09-27T12:10:21.427Z,28.57
2022-09-27T12:12:53.657Z,28.51
2022-09-27T12:15:24.169Z,28.48
2022-09-27T12:18:12.209Z,28.64
2022-09-27T12:20:43.533Z,28.12
2022-09-27T12:23:20.799Z,27.96
2022-09-27T12:25:54.459Z,28.13
2022-09-27T12:28:34.983Z,28.59
2022-09-27T12:31:28.547Z,28.89
2022-09-27T12:34:17.560Z,29.30
2022-09-27T12:37:06.533Z,29.55
2022-09-27T12:39:46.053Z,29.61
2022-09-27T12:42:19.292Z,29.68
2022-09-27T12:44:50.499Z,29.81
2022-09-27T12:47:45.391Z,29.95
2022-09-27T12:50:21.168Z,30.19
2022-09-27T12:52:54.421Z,30.30
2022-09-27T12:55:54.040Z,30.31
2022-09-27T12:58:49.605Z,30.36
2022-09-27T13:01:28.475Z,30.69
2022-09-27T13:04:25.539Z,30.41
2022-09-27T13:07:09.604Z,30.44
2022-09-27T13:10:10.167Z,30.65
2022-09-27T13:12:41.817Z,30.43
2022-09-27T13:15:18.940Z,30.55
2022-09-27T13:17:56.494Z,30.73
2022-09-27T13:20:49.491Z,30.72
2022-09-27T13:23:57.975Z,30.59
2022-09-27T13:26:45.005Z,31.05
2022-09-27T13:29:30.120Z,30.70
2022-09-27T13:32:22.705Z,29.96
2022-09-27T13:34:53.779Z,30.47
2022-09-27T13:37:50.817Z,30.86
2022-09-27T13:40:30.878Z,30.10
2022-09-27T13:43:16.453Z,29.24
2022-09-27T13:46:00.159Z,29.95
2022-09-27T13:48:33.328Z,30.54
2022-09-27T13:51:05.567Z,31.23
2022-09-27T13:53:37.167Z,31.27
2022-09-27T13:56:05.982Z,30.41
2022-09-27T13:58:52.524Z,29.65
2022-09-27T14:01:29.795Z,28.53
2022-09-27T14:04:01.962Z,28.56
2022-09-27T14:06:35.279Z,28.57
2022-09-27T14:09:06.746Z,28.37
2022-09-27T14:11:38.961Z,28.03
2022-09-27T14:14:08.790Z,27.45
2022-09-27T14:16:46.340Z,26.77
2022-09-27T14:19:17.707Z,26.34
2022-09-27T14:21:46.577Z,26.00
2022-09-27T14:24:30.225Z,25.41
2022-09-27T14:27:22.709Z,25.08
2022-09-27T14:29:53.347Z,24.53
2022-09-27T14:32:25.320Z,24.23
2022-09-27T14:35:28.289Z,23.94
2022-09-27T14:37:56.513Z,23.59
2022-09-27T14:40:25.025Z,23.16
2022-09-27T14:42:57.029Z,22.98
2022-09-27T14:45:30.217Z,22.79
2022-09-27T14:48:00.683Z,22.38
2022-09-27T14:50:30.975Z,22.25
2022-09-27T14:53:00.933Z,21.98
2022-09-27T14:55:34.935Z,21.68
2022-09-27T14:58:05.501Z,21.49
2022-09-27T15:00:37.124Z,21.34
2022-09-27T15:03:10.763Z,21.31
2022-09-27T15:05:42.876Z,21.19
2022-09-27T15:08:15.321Z,21.06
2022-09-27T15:10:45.064Z,20.94
2022-09-27T15:13:18.771Z,20.60
2022-09-27T15:15:48.834Z,18.26
2022-09-27T15:18:41.444Z,16.64
2022-09-27T15:21:11.155Z,15.17
2022-09-27T15:23:41.471Z,14.60
2022-09-27T15:26:14.589Z,14.12
2022-09-27T15:28:45.310Z,13.90
2022-09-27T15:31:14.225Z,13.76
2022-09-27T15:33:52.446Z,13.70
2022-09-27T15:36:51.863Z,13.45
2022-09-27T15:39:22.282Z,13.37
2022-09-27T15:42:05.505Z,13.56
2022-09-27T15:44:55.927Z,13.61
2022-09-27T15:47:44.237Z,13.49
2022-09-27T15:50:39.709Z,13.48
2022-09-27T15:53:09.672Z,13.64
2022-09-27T15:55:42.350Z,13.61
2022-09-27T15:58:16.657Z,13.68
2022-09-27T16:00:55.287Z,13.81
2022-09-27T16:03:23.672Z,13.88
2022-09-27T16:05:53.347Z,13.92
2022-09-27T16:08:21.711Z,13.95
2022-09-27T16:10:52.737Z,14.00
2022-09-27T16:13:21.061Z,14.09
2022-09-27T16:15:49.624Z,14.38
2022-09-27T16:18:18.146Z,14.45
2022-09-27T16:20:46.856Z,14.43
2022-09-27T16:23:16.173Z,14.57
2022-09-27T16:25:44.160Z,14.79
2022-09-27T16:28:12.677Z,14.96
2022-09-27T16:30:40.729Z,15.33
2022-09-27T16:33:08.764Z,15.43
2022-09-27T16:35:36.760Z,15.66
2022-09-27T16:38:04.671Z,15.58
2022-09-27T16:40:34.098Z,15.67
2022-09-27T16:43:03.494Z,15.63
2022-09-27T16:45:34.283Z,15.70
2022-09-27T16:48:03.021Z,15.63
2022-09-27T16:50:48.688Z,15.49
2022-09-27T16:53:16.763Z,15.52
2022-09-27T16:55:46.651Z,15.62
2022-09-27T16:58:14.646Z,15.72
2022-09-27T17:00:43.389Z,15.71
2022-09-27T17:03:11.402Z,15.77
2022-09-27T17:05:39.281Z,15.80
2022-09-27T17:08:07.289Z,15.77
2022-09-27T17:10:35.854Z,15.80
2022-09-27T17:13:05.142Z,15.79
2022-09-27T17:15:33.132Z,15.60
2022-09-27T17:18:01.089Z,15.62
2022-09-27T17:20:28.965Z,15.55
2022-09-27T17:22:57.796Z,15.73
2022-09-27T17:25:28.165Z,15.68
2022-09-27T17:27:57.035Z,15.67
2022-09-27T17:30:30.439Z,15.82
2022-09-27T17:32:59.251Z,15.88
2022-09-27T17:35:27.264Z,15.91
2022-09-27T17:37:55.178Z,15.82
2022-09-27T17:40:23.226Z,15.74
2022-09-27T17:42:51.139Z,15.56
2022-09-27T17:45:19.074Z,15.55
2022-09-27T17:48:07.196Z,15.36
2022-09-27T17:50:37.433Z,15.64
2022-09-27T17:53:05.350Z,15.61
2022-09-27T17:55:33.824Z,15.47
2022-09-27T17:58:02.222Z,15.42
2022-09-27T18:00:30.545Z,15.43
2022-09-27T18:03:00.409Z,15.42
2022-09-27T18:05:29.214Z,15.48
2022-09-27T18:07:57.118Z,15.51
2022-09-27T18:10:25.257Z,15.43
2022-09-27T18:12:53.895Z,15.39
2022-09-27T18:15:21.782Z,15.36
2022-09-27T18:17:54.561Z,15.38
2022-09-27T18:20:27.310Z,15.28
2022-09-27T18:22:56.575Z,15.03
2022-09-27T18:25:25.253Z,14.87
2022-09-27T18:27:56.004Z,14.83
2022-09-27T18:30:24.983Z,14.84
2022-09-27T18:32:54.186Z,14.90
2022-09-27T18:35:24.385Z,14.92
2022-09-27T18:37:54.792Z,14.86
2022-09-27T18:40:44.495Z,14.55
2022-09-27T18:43:11.229Z,14.51
2022-09-27T18:45:39.674Z,14.50
2022-09-27T18:48:07.612Z,14.41
2022-09-27T18:50:38.912Z,14.46
2022-09-27T18:53:09.019Z,14.32
2022-09-27T18:55:38.534Z,14.32
2022-09-27T18:58:06.534Z,14.36
2022-09-27T19:00:34.753Z,14.27
2022-09-27T19:03:02.764Z,14.32
2022-09-27T19:05:30.646Z,14.31
2022-09-27T19:07:58.524Z,14.30
2022-09-27T19:10:27.795Z,14.28
2022-09-27T19:12:57.224Z,14.28
2022-09-27T19:15:25.665Z,14.17
2022-09-27T19:17:53.589Z,14.19
2022-09-27T19:20:21.669Z,14.04
2022-09-27T19:22:49.565Z,14.15
2022-09-27T19:25:17.708Z,14.18
2022-09-27T19:27:47.263Z,14.19
2022-09-27T19:30:15.350Z,14.23
2022-09-27T19:32:43.541Z,14.32
2022-09-27T19:35:12.555Z,14.16
2022-09-27T19:37:40.680Z,14.00
2022-09-27T19:40:09.295Z,14.03
2022-09-27T19:42:37.531Z,13.91
2022-09-27T19:45:12.346Z,13.81
2022-09-27T19:47:40.274Z,14.12
2022-09-27T19:50:12.078Z,14.28
2022-09-27T19:52:41.325Z,14.21
2022-09-27T19:55:10.354Z,14.26
2022-09-27T19:57:38.351Z,14.25
2022-09-27T20:00:14.384Z,14.22
2022-09-27T20:02:43.409Z,14.02
2022-09-27T20:05:11.485Z,14.19
2022-09-27T20:07:46.140Z,14.14
2022-09-27T20:10:14.457Z,14.31
2022-09-27T20:12:44.738Z,14.48
2022-09-27T20:15:14.908Z,14.44
2022-09-27T20:17:42.807Z,14.31
2022-09-27T20:20:11.146Z,14.45
2022-09-27T20:22:39.113Z,14.27
2022-09-27T20:25:07.984Z,14.46
2022-09-27T20:27:39.308Z,14.38
2022-09-27T20:30:11.977Z,14.53
2022-09-27T20:32:41.697Z,14.53
2022-09-27T20:35:11.261Z,14.42
2022-09-27T20:37:39.222Z,14.43
2022-09-27T20:40:08.111Z,14.42
2022-09-27T20:42:36.005Z,14.22
2022-09-27T20:45:04.112Z,14.33
2022-09-27T20:47:32.095Z,14.27
2022-09-27T20:50:03.140Z,14.21
2022-09-27T20:52:31.057Z,14.36
2022-09-27T20:54:59.016Z,14.26
2022-09-27T20:57:40.431Z,14.38
2022-09-27T21:00:15.857Z,14.44
2022-09-27T21:02:43.798Z,14.51
2022-09-27T21:05:13.122Z,14.49
2022-09-27T21:07:41.371Z,14.54
2022-09-27T21:10:09.727Z,14.53
2022-09-27T21:12:37.657Z,14.51
2022-09-27T21:15:05.943Z,14.49
2022-09-27T21:17:33.863Z,14.42
2022-09-27T21:20:02.061Z,14.39
2022-09-27T21:22:31.597Z,14.42
2022-09-27T21:24:59.479Z,14.37
2022-09-27T21:27:27.387Z,14.38
2022-09-27T21:29:55.381Z,14.48
2022-09-27T21:32:23.226Z,14.39
2022-09-27T21:34:51.140Z,14.34
2022-09-27T21:37:19.063Z,14.45
2022-09-27T21:39:48.308Z,14.33
2022-09-27T21:42:16.198Z,14.44
2022-09-27T21:44:44.165Z,14.47
2022-09-27T21:47:13.592Z,14.45
2022-09-27T21:49:41.525Z,14.62
2022-09-27T21:52:09.422Z,14.62
2022-09-27T21:54:37.317Z,14.44
2022-09-27T21:57:06.559Z,14.31
2022-09-27T21:59:34.437Z,14.21
2022-09-27T22:02:02.357Z,14.17
2022-09-27T22:04:30.334Z,14.17
2022-09-27T22:06:58.313Z,14.10
2022-09-27T22:09:26.168Z,13.95
2022-09-27T22:11:54.294Z,13.77
2022-09-27T22:14:23.959Z,13.73
2022-09-27T22:16:51.872Z,13.75
2022-09-27T22:19:20.908Z,13.73
2022-09-27T22:21:48.855Z,13.66
2022-09-27T22:24:18.495Z,13.57
2022-09-27T22:26:48.694Z,13.44
2022-09-27T22:29:17.334Z,13.38
2022-09-27T22:31:46.984Z,13.39
2022-09-27T22:34:18.955Z,13.29
2022-09-27T22:36:47.273Z,13.38
2022-09-27T22:39:15.235Z,13.32
2022-09-27T22:41:43.246Z,13.30
2022-09-27T22:44:11.162Z,13.25
2022-09-27T22:46:39.169Z,13.25
2022-09-27T22:49:08.624Z,13.28
2022-09-27T22:51:36.565Z,13.25
2022-09-27T22:54:04.844Z,13.27
2022-09-27T22:56:32.750Z,13.23
2022-09-27T22:59:00.813Z,13.19
2022-09-27T23:01:28.717Z,13.23
2022-09-27T23:03:57.266Z,13.19
2022-09-27T23:06:26.614Z,13.23
2022-09-27T23:08:55.096Z,13.22
2022-09-27T23:11:23.920Z,13.19
2022-09-27T23:13:52.933Z,13.12
2022-09-27T23:16:24.444Z,12.88
2022-09-27T23:18:54.221Z,13.06
2022-09-27T23:21:24.176Z,12.98
2022-09-27T23:23:55.234Z,12.71
2022-09-27T23:26:26.206Z,12.98
2022-09-27T23:28:56.792Z,12.96
2022-09-27T23:31:25.518Z,12.94
2022-09-27T23:33:54.390Z,12.98
2022-09-27T23:36:26.030Z,12.87
2022-09-27T23:38:56.599Z,12.98
2022-09-27T23:41:24.485Z,12.95
2022-09-27T23:43:53.422Z,12.95
2022-09-27T23:46:21.830Z,13.01
2022-09-27T23:48:49.815Z,12.91
2022-09-27T23:51:17.768Z,12.68
2022-09-27T23:53:45.772Z,12.79
2022-09-27T23:56:16.912Z,12.84
2022-09-27T23:58:46.612Z,12.69
